sensor_id;sensor_type;location;lat;lon;timestamp;temperature;humidity
14705;DHT22;7442;50.840;3.396;2023-02-15T00:00:35;22.30;44.50
14705;DHT22;7442;50.840;3.396;2023-02-15T00:03:05;22.40;44.50
14705;DHT22;7442;50.840;3.396;2023-02-15T00:05:35;22.50;44.00
14705;DHT22;7442;50.840;3.396;2023-02-15T00:08:05;22.70;43.40
14705;DHT22;7442;50.840;3.396;2023-02-15T00:10:35;23.00;42.80
14705;DHT22;7442;50.840;3.396;2023-02-15T00:13:05;23.10;42.50
14705;DHT22;7442;50.840;3.396;2023-02-15T00:15:35;23.10;42.50
14705;DHT22;7442;50.840;3.396;2023-02-15T00:18:05;23.10;42.50
14705;DHT22;7442;50.840;3.396;2023-02-15T00:20:35;23.10;42.50
14705;DHT22;7442;50.840;3.396;2023-02-15T00:23:09;23.00;42.50
14705;DHT22;7442;50.840;3.396;2023-02-15T00:25:39;23.00;42.50
14705;DHT22;7442;50.840;3.396;2023-02-15T00:28:09;23.00;42.40
14705;DHT22;7442;50.840;3.396;2023-02-15T00:30:39;23.00;42.40
14705;DHT22;7442;50.840;3.396;2023-02-15T00:33:11;22.90;42.50
14705;DHT22;7442;50.840;3.396;2023-02-15T00:35:41;22.90;42.60
14705;DHT22;7442;50.840;3.396;2023-02-15T00:38:11;22.90;42.50
14705;DHT22;7442;50.840;3.396;2023-02-15T00:40:41;23.00;42.50
14705;DHT22;7442;50.840;3.396;2023-02-15T00:43:11;22.90;42.40
14705;DHT22;7442;50.840;3.396;2023-02-15T00:45:41;22.90;42.40
14705;DHT22;7442;50.840;3.396;2023-02-15T00:48:11;22.90;42.40
14705;DHT22;7442;50.840;3.396;2023-02-15T00:50:44;22.90;42.40
14705;DHT22;7442;50.840;3.396;2023-02-15T00:53:13;22.90;42.30
14705;DHT22;7442;50.840;3.396;2023-02-15T00:55:43;22.90;42.20
14705;DHT22;7442;50.840;3.396;2023-02-15T00:58:14;22.90;42.20
14705;DHT22;7442;50.840;3.396;2023-02-15T01:00:46;22.90;42.30
14705;DHT22;7442;50.840;3.396;2023-02-15T01:03:18;22.90;42.20
14705;DHT22;7442;50.840;3.396;2023-02-15T01:05:49;23.00;42.10
14705;DHT22;7442;50.840;3.396;2023-02-15T01:08:19;23.00;42.10
14705;DHT22;7442;50.840;3.396;2023-02-15T01:10:49;22.90;42.20
14705;DHT22;7442;50.840;3.396;2023-02-15T01:13:19;22.70;42.50
14705;DHT22;7442;50.840;3.396;2023-02-15T01:15:54;22.60;42.70
14705;DHT22;7442;50.840;3.396;2023-02-15T01:18:26;22.60;42.80
14705;DHT22;7442;50.840;3.396;2023-02-15T01:20:56;22.50;42.90
14705;DHT22;7442;50.840;3.396;2023-02-15T01:23:27;22.50;43.10
14705;DHT22;7442;50.840;3.396;2023-02-15T01:26:01;22.40;43.20
14705;DHT22;7442;50.840;3.396;2023-02-15T01:28:30;22.40;43.10
14705;DHT22;7442;50.840;3.396;2023-02-15T01:31:06;22.40;43.10
14705;DHT22;7442;50.840;3.396;2023-02-15T01:33:37;22.30;43.00
14705;DHT22;7442;50.840;3.396;2023-02-15T01:36:07;22.40;43.00
14705;DHT22;7442;50.840;3.396;2023-02-15T01:38:37;22.30;43.00
14705;DHT22;7442;50.840;3.396;2023-02-15T01:41:09;22.30;43.00
14705;DHT22;7442;50.840;3.396;2023-02-15T01:43:57;22.30;43.00
14705;DHT22;7442;50.840;3.396;2023-02-15T01:46:41;22.30;43.00
14705;DHT22;7442;50.840;3.396;2023-02-15T01:49:15;22.30;42.90
14705;DHT22;7442;50.840;3.396;2023-02-15T01:51:48;22.30;43.00
14705;DHT22;7442;50.840;3.396;2023-02-15T01:54:23;22.30;43.00
14705;DHT22;7442;50.840;3.396;2023-02-15T01:56:58;22.20;43.00
14705;DHT22;7442;50.840;3.396;2023-02-15T01:59:28;22.20;43.10
14705;DHT22;7442;50.840;3.396;2023-02-15T02:02:00;22.20;43.10
14705;DHT22;7442;50.840;3.396;2023-02-15T02:04:48;22.20;43.00
14705;DHT22;7442;50.840;3.396;2023-02-15T02:07:20;22.20;43.00
14705;DHT22;7442;50.840;3.396;2023-02-15T02:09:51;22.30;42.80
14705;DHT22;7442;50.840;3.396;2023-02-15T02:12:22;22.30;42.80
14705;DHT22;7442;50.840;3.396;2023-02-15T02:14:54;22.30;42.60
14705;DHT22;7442;50.840;3.396;2023-02-15T02:34:25;22.40;42.30
14705;DHT22;7442;50.840;3.396;2023-02-15T02:37:03;22.40;42.20
14705;DHT22;7442;50.840;3.396;2023-02-15T02:39:42;22.40;42.20
14705;DHT22;7442;50.840;3.396;2023-02-15T02:42:17;22.40;42.30
14705;DHT22;7442;50.840;3.396;2023-02-15T02:44:52;22.40;42.80
14705;DHT22;7442;50.840;3.396;2023-02-15T02:47:26;22.40;42.10
14705;DHT22;7442;50.840;3.396;2023-02-15T02:50:05;22.40;42.10
14705;DHT22;7442;50.840;3.396;2023-02-15T02:52:42;22.40;42.00
14705;DHT22;7442;50.840;3.396;2023-02-15T02:55:37;22.50;42.00
14705;DHT22;7442;50.840;3.396;2023-02-15T02:58:34;22.50;41.80
14705;DHT22;7442;50.840;3.396;2023-02-15T03:01:09;22.50;41.90
14705;DHT22;7442;50.840;3.396;2023-02-15T03:03:50;22.50;41.90
14705;DHT22;7442;50.840;3.396;2023-02-15T03:06:24;22.50;41.80
14705;DHT22;7442;50.840;3.396;2023-02-15T03:09:03;22.40;41.80
14705;DHT22;7442;50.840;3.396;2023-02-15T03:11:28;22.40;41.80
14705;DHT22;7442;50.840;3.396;2023-02-15T03:13:59;22.30;42.10
14705;DHT22;7442;50.840;3.396;2023-02-15T03:16:29;22.30;42.20
14705;DHT22;7442;50.840;3.396;2023-02-15T03:19:09;22.20;42.40
14705;DHT22;7442;50.840;3.396;2023-02-15T03:21:50;22.10;42.50
14705;DHT22;7442;50.840;3.396;2023-02-15T03:24:28;22.10;42.60
14705;DHT22;7442;50.840;3.396;2023-02-15T03:26:59;22.10;42.60
14705;DHT22;7442;50.840;3.396;2023-02-15T03:29:32;22.10;42.60
14705;DHT22;7442;50.840;3.396;2023-02-15T03:32:04;22.00;42.60
14705;DHT22;7442;50.840;3.396;2023-02-15T03:34:35;22.00;42.60
14705;DHT22;7442;50.840;3.396;2023-02-15T03:37:15;22.00;42.60
14705;DHT22;7442;50.840;3.396;2023-02-15T03:39:53;22.00;42.60
14705;DHT22;7442;50.840;3.396;2023-02-15T03:42:32;22.00;42.70
14705;DHT22;7442;50.840;3.396;2023-02-15T03:45:13;22.00;42.70
14705;DHT22;7442;50.840;3.396;2023-02-15T03:47:41;22.00;42.70
14705;DHT22;7442;50.840;3.396;2023-02-15T03:50:15;22.00;42.60
14705;DHT22;7442;50.840;3.396;2023-02-15T03:53:05;22.00;42.60
14705;DHT22;7442;50.840;3.396;2023-02-15T03:55:36;22.00;42.60
14705;DHT22;7442;50.840;3.396;2023-02-15T03:58:06;22.00;42.60
14705;DHT22;7442;50.840;3.396;2023-02-15T04:01:00;22.00;43.20
14705;DHT22;7442;50.840;3.396;2023-02-15T04:03:57;22.00;42.70
14705;DHT22;7442;50.840;3.396;2023-02-15T04:06:27;21.90;42.60
14705;DHT22;7442;50.840;3.396;2023-02-15T04:08:57;21.90;42.70
14705;DHT22;7442;50.840;3.396;2023-02-15T04:11:45;21.90;42.70
14705;DHT22;7442;50.840;3.396;2023-02-15T04:14:16;21.80;42.70
14705;DHT22;7442;50.840;3.396;2023-02-15T04:17:08;21.90;42.70
14705;DHT22;7442;50.840;3.396;2023-02-15T04:19:39;21.90;42.60
14705;DHT22;7442;50.840;3.396;2023-02-15T04:22:27;21.90;42.60
14705;DHT22;7442;50.840;3.396;2023-02-15T04:25:15;21.90;42.60
14705;DHT22;7442;50.840;3.396;2023-02-15T04:27:50;21.80;42.70
14705;DHT22;7442;50.840;3.396;2023-02-15T04:30:24;21.80;42.60
14705;DHT22;7442;50.840;3.396;2023-02-15T04:32:54;21.90;42.60
14705;DHT22;7442;50.840;3.396;2023-02-15T04:35:26;21.90;42.60
14705;DHT22;7442;50.840;3.396;2023-02-15T04:37:56;21.90;42.50
14705;DHT22;7442;50.840;3.396;2023-02-15T04:40:26;21.90;42.50
14705;DHT22;7442;50.840;3.396;2023-02-15T04:42:56;21.80;42.50
14705;DHT22;7442;50.840;3.396;2023-02-15T04:45:26;21.90;42.40
14705;DHT22;7442;50.840;3.396;2023-02-15T04:47:56;21.90;42.50
14705;DHT22;7442;50.840;3.396;2023-02-15T04:50:26;21.90;42.40
14705;DHT22;7442;50.840;3.396;2023-02-15T04:52:56;21.80;42.40
14705;DHT22;7442;50.840;3.396;2023-02-15T04:55:26;21.90;42.40
14705;DHT22;7442;50.840;3.396;2023-02-15T04:57:56;21.90;42.40
14705;DHT22;7442;50.840;3.396;2023-02-15T05:00:26;21.90;42.30
14705;DHT22;7442;50.840;3.396;2023-02-15T05:02:56;21.90;42.30
14705;DHT22;7442;50.840;3.396;2023-02-15T05:05:26;21.90;42.30
14705;DHT22;7442;50.840;3.396;2023-02-15T05:07:56;21.90;42.20
14705;DHT22;7442;50.840;3.396;2023-02-15T05:10:26;21.90;42.30
14705;DHT22;7442;50.840;3.396;2023-02-15T05:12:56;21.80;42.40
14705;DHT22;7442;50.840;3.396;2023-02-15T05:15:27;21.90;42.30
14705;DHT22;7442;50.840;3.396;2023-02-15T05:17:57;21.90;42.30
14705;DHT22;7442;50.840;3.396;2023-02-15T05:20:27;21.80;42.30
14705;DHT22;7442;50.840;3.396;2023-02-15T05:22:57;21.90;42.30
14705;DHT22;7442;50.840;3.396;2023-02-15T05:25:27;21.90;42.30
14705;DHT22;7442;50.840;3.396;2023-02-15T05:28:15;21.90;42.30
14705;DHT22;7442;50.840;3.396;2023-02-15T05:31:01;21.80;42.40
14705;DHT22;7442;50.840;3.396;2023-02-15T05:33:30;21.90;42.30
14705;DHT22;7442;50.840;3.396;2023-02-15T05:36:01;21.80;42.30
14705;DHT22;7442;50.840;3.396;2023-02-15T05:38:32;21.80;42.30
14705;DHT22;7442;50.840;3.396;2023-02-15T05:41:02;21.90;42.30
14705;DHT22;7442;50.840;3.396;2023-02-15T05:43:32;21.80;42.30
14705;DHT22;7442;50.840;3.396;2023-02-15T05:46:03;21.80;42.30
14705;DHT22;7442;50.840;3.396;2023-02-15T05:48:34;21.90;42.30
14705;DHT22;7442;50.840;3.396;2023-02-15T05:51:10;21.90;42.30
14705;DHT22;7442;50.840;3.396;2023-02-15T05:53:42;21.80;42.30
14705;DHT22;7442;50.840;3.396;2023-02-15T05:56:15;21.80;42.30
14705;DHT22;7442;50.840;3.396;2023-02-15T05:58:47;21.90;42.20
14705;DHT22;7442;50.840;3.396;2023-02-15T06:01:18;21.90;42.20
14705;DHT22;7442;50.840;3.396;2023-02-15T06:03:50;21.90;42.30
14705;DHT22;7442;50.840;3.396;2023-02-15T06:06:21;21.80;42.20
14705;DHT22;7442;50.840;3.396;2023-02-15T06:08:51;21.90;42.30
14705;DHT22;7442;50.840;3.396;2023-02-15T06:11:21;21.80;42.20
14705;DHT22;7442;50.840;3.396;2023-02-15T06:13:51;21.80;42.20
14705;DHT22;7442;50.840;3.396;2023-02-15T06:16:22;21.90;42.20
14705;DHT22;7442;50.840;3.396;2023-02-15T06:18:52;21.90;42.10
14705;DHT22;7442;50.840;3.396;2023-02-15T06:21:22;21.90;42.10
14705;DHT22;7442;50.840;3.396;2023-02-15T06:23:53;21.90;42.10
14705;DHT22;7442;50.840;3.396;2023-02-15T06:26:24;21.90;42.20
14705;DHT22;7442;50.840;3.396;2023-02-15T06:28:54;21.90;42.30
14705;DHT22;7442;50.840;3.396;2023-02-15T06:31:24;21.90;42.30
14705;DHT22;7442;50.840;3.396;2023-02-15T06:33:54;21.80;42.40
14705;DHT22;7442;50.840;3.396;2023-02-15T06:36:27;21.90;42.40
14705;DHT22;7442;50.840;3.396;2023-02-15T06:38:57;21.80;42.50
14705;DHT22;7442;50.840;3.396;2023-02-15T06:41:27;22.00;42.80
14705;DHT22;7442;50.840;3.396;2023-02-15T06:43:57;22.10;43.00
14705;DHT22;7442;50.840;3.396;2023-02-15T06:46:28;22.30;42.90
14705;DHT22;7442;50.840;3.396;2023-02-15T06:48:58;22.40;42.80
14705;DHT22;7442;50.840;3.396;2023-02-15T06:51:28;22.40;42.70
14705;DHT22;7442;50.840;3.396;2023-02-15T06:53:58;22.30;42.60
14705;DHT22;7442;50.840;3.396;2023-02-15T06:56:28;22.30;42.50
14705;DHT22;7442;50.840;3.396;2023-02-15T06:58:59;22.30;42.50
14705;DHT22;7442;50.840;3.396;2023-02-15T07:01:29;22.20;42.60
14705;DHT22;7442;50.840;3.396;2023-02-15T07:03:59;22.30;42.60
14705;DHT22;7442;50.840;3.396;2023-02-15T07:06:33;22.20;42.50
14705;DHT22;7442;50.840;3.396;2023-02-15T07:09:05;22.20;42.60
14705;DHT22;7442;50.840;3.396;2023-02-15T07:11:35;22.20;42.60
14705;DHT22;7442;50.840;3.396;2023-02-15T07:14:23;22.10;42.50
14705;DHT22;7442;50.840;3.396;2023-02-15T07:16:53;22.20;42.50
14705;DHT22;7442;50.840;3.396;2023-02-15T07:19:23;22.20;42.60
14705;DHT22;7442;50.840;3.396;2023-02-15T07:21:53;22.20;42.40
14705;DHT22;7442;50.840;3.396;2023-02-15T07:24:23;22.20;42.40
14705;DHT22;7442;50.840;3.396;2023-02-15T07:26:53;22.30;42.40
14705;DHT22;7442;50.840;3.396;2023-02-15T07:29:23;22.20;42.90
14705;DHT22;7442;50.840;3.396;2023-02-15T07:31:55;22.30;42.30
14705;DHT22;7442;50.840;3.396;2023-02-15T07:34:27;22.30;42.20
14705;DHT22;7442;50.840;3.396;2023-02-15T07:36:57;22.30;42.30
14705;DHT22;7442;50.840;3.396;2023-02-15T07:39:27;22.30;42.30
14705;DHT22;7442;50.840;3.396;2023-02-15T07:41:57;22.30;42.30
14705;DHT22;7442;50.840;3.396;2023-02-15T07:44:30;22.30;42.20
14705;DHT22;7442;50.840;3.396;2023-02-15T07:47:00;22.20;42.30
14705;DHT22;7442;50.840;3.396;2023-02-15T07:49:30;22.20;42.30
14705;DHT22;7442;50.840;3.396;2023-02-15T07:52:01;22.20;42.30
14705;DHT22;7442;50.840;3.396;2023-02-15T07:54:31;22.30;42.20
14705;DHT22;7442;50.840;3.396;2023-02-15T07:57:01;22.30;42.40
14705;DHT22;7442;50.840;3.396;2023-02-15T07:59:31;22.30;42.30
14705;DHT22;7442;50.840;3.396;2023-02-15T08:02:01;22.20;42.50
14705;DHT22;7442;50.840;3.396;2023-02-15T08:04:31;22.10;42.70
14705;DHT22;7442;50.840;3.396;2023-02-15T08:07:01;22.10;42.80
14705;DHT22;7442;50.840;3.396;2023-02-15T08:09:33;22.20;42.70
14705;DHT22;7442;50.840;3.396;2023-02-15T08:12:10;22.20;42.60
14705;DHT22;7442;50.840;3.396;2023-02-15T08:14:40;22.20;42.60
14705;DHT22;7442;50.840;3.396;2023-02-15T08:17:10;22.20;42.70
14705;DHT22;7442;50.840;3.396;2023-02-15T08:19:40;22.30;43.20
14705;DHT22;7442;50.840;3.396;2023-02-15T08:22:12;22.30;42.60
14705;DHT22;7442;50.840;3.396;2023-02-15T08:24:43;22.30;42.60
14705;DHT22;7442;50.840;3.396;2023-02-15T08:27:13;22.30;42.60
14705;DHT22;7442;50.840;3.396;2023-02-15T08:29:43;22.30;42.10
14705;DHT22;7442;50.840;3.396;2023-02-15T08:32:13;22.30;42.40
14705;DHT22;7442;50.840;3.396;2023-02-15T08:34:43;22.40;42.40
14705;DHT22;7442;50.840;3.396;2023-02-15T08:37:13;22.40;42.40
14705;DHT22;7442;50.840;3.396;2023-02-15T08:39:43;22.40;42.40
14705;DHT22;7442;50.840;3.396;2023-02-15T08:42:14;22.40;42.40
14705;DHT22;7442;50.840;3.396;2023-02-15T08:44:44;22.40;42.30
14705;DHT22;7442;50.840;3.396;2023-02-15T08:47:15;22.30;42.40
14705;DHT22;7442;50.840;3.396;2023-02-15T08:49:45;22.40;42.40
14705;DHT22;7442;50.840;3.396;2023-02-15T08:52:15;22.40;42.40
14705;DHT22;7442;50.840;3.396;2023-02-15T08:54:45;22.40;42.60
14705;DHT22;7442;50.840;3.396;2023-02-15T08:57:15;22.50;42.80
14705;DHT22;7442;50.840;3.396;2023-02-15T08:59:45;22.50;42.90
14705;DHT22;7442;50.840;3.396;2023-02-15T09:02:16;22.40;42.90
14705;DHT22;7442;50.840;3.396;2023-02-15T09:04:46;22.50;43.20
14705;DHT22;7442;50.840;3.396;2023-02-15T09:07:16;22.50;43.30
14705;DHT22;7442;50.840;3.396;2023-02-15T09:09:47;22.50;43.50
14705;DHT22;7442;50.840;3.396;2023-02-15T09:12:17;22.50;43.60
14705;DHT22;7442;50.840;3.396;2023-02-15T09:14:48;22.50;43.60
14705;DHT22;7442;50.840;3.396;2023-02-15T09:17:18;22.60;43.60
14705;DHT22;7442;50.840;3.396;2023-02-15T09:19:48;22.60;43.60
14705;DHT22;7442;50.840;3.396;2023-02-15T09:22:18;22.60;43.70
14705;DHT22;7442;50.840;3.396;2023-02-15T09:24:48;22.60;43.80
14705;DHT22;7442;50.840;3.396;2023-02-15T09:27:18;22.60;44.30
14705;DHT22;7442;50.840;3.396;2023-02-15T09:29:48;22.50;44.10
14705;DHT22;7442;50.840;3.396;2023-02-15T09:32:18;22.60;44.20
14705;DHT22;7442;50.840;3.396;2023-02-15T09:34:48;22.60;44.20
14705;DHT22;7442;50.840;3.396;2023-02-15T09:37:18;22.70;45.20
14705;DHT22;7442;50.840;3.396;2023-02-15T09:39:48;22.80;44.70
14705;DHT22;7442;50.840;3.396;2023-02-15T09:48:01;22.60;44.00
14705;DHT22;7442;50.840;3.396;2023-02-15T10:07:27;22.90;44.30
14705;DHT22;7442;50.840;3.396;2023-02-15T10:18:25;23.00;43.90
14705;DHT22;7442;50.840;3.396;2023-02-15T10:24:09;23.00;43.90
14705;DHT22;7442;50.840;3.396;2023-02-15T10:26:47;23.00;43.90
14705;DHT22;7442;50.840;3.396;2023-02-15T10:32:11;23.10;43.70
14705;DHT22;7442;50.840;3.396;2023-02-15T10:34:46;23.10;43.60
14705;DHT22;7442;50.840;3.396;2023-02-15T10:40:18;23.20;43.40
14705;DHT22;7442;50.840;3.396;2023-02-15T10:49:05;23.20;43.30
14705;DHT22;7442;50.840;3.396;2023-02-15T10:52:25;23.30;43.30
14705;DHT22;7442;50.840;3.396;2023-02-15T10:57:16;23.40;43.10
14705;DHT22;7442;50.840;3.396;2023-02-15T11:08:18;23.50;43.10
14705;DHT22;7442;50.840;3.396;2023-02-15T11:11:08;23.50;42.90
14705;DHT22;7442;50.840;3.396;2023-02-15T11:13:37;23.50;43.00
14705;DHT22;7442;50.840;3.396;2023-02-15T11:16:17;23.60;43.00
14705;DHT22;7442;50.840;3.396;2023-02-15T11:19:06;23.60;42.90
14705;DHT22;7442;50.840;3.396;2023-02-15T11:21:45;23.80;42.60
14705;DHT22;7442;50.840;3.396;2023-02-15T11:24:20;23.80;42.00
14705;DHT22;7442;50.840;3.396;2023-02-15T11:27:05;23.90;41.90
14705;DHT22;7442;50.840;3.396;2023-02-15T11:32:43;23.90;42.10
14705;DHT22;7442;50.840;3.396;2023-02-15T11:37:49;24.00;42.00
14705;DHT22;7442;50.840;3.396;2023-02-15T11:40:35;24.10;42.10
14705;DHT22;7442;50.840;3.396;2023-02-15T11:43:14;24.10;42.00
14705;DHT22;7442;50.840;3.396;2023-02-15T11:45:45;24.20;42.00
14705;DHT22;7442;50.840;3.396;2023-02-15T11:48:16;24.30;42.10
14705;DHT22;7442;50.840;3.396;2023-02-15T11:50:46;24.40;42.10
14705;DHT22;7442;50.840;3.396;2023-02-15T11:53:19;24.40;42.00
14705;DHT22;7442;50.840;3.396;2023-02-15T11:55:56;24.40;42.00
14705;DHT22;7442;50.840;3.396;2023-02-15T11:58:54;24.50;42.00
14705;DHT22;7442;50.840;3.396;2023-02-15T12:01:43;24.50;41.80
14705;DHT22;7442;50.840;3.396;2023-02-15T12:04:32;24.50;42.00
14705;DHT22;7442;50.840;3.396;2023-02-15T12:12:35;24.60;41.20
14705;DHT22;7442;50.840;3.396;2023-02-15T12:15:07;24.60;41.30
14705;DHT22;7442;50.840;3.396;2023-02-15T12:17:40;24.60;41.30
14705;DHT22;7442;50.840;3.396;2023-02-15T12:22:59;24.50;41.40
14705;DHT22;7442;50.840;3.396;2023-02-15T12:25:50;24.50;41.60
14705;DHT22;7442;50.840;3.396;2023-02-15T12:28:31;24.60;41.40
14705;DHT22;7442;50.840;3.396;2023-02-15T12:31:06;24.50;41.20
14705;DHT22;7442;50.840;3.396;2023-02-15T12:33:42;24.60;41.30
14705;DHT22;7442;50.840;3.396;2023-02-15T12:36:29;24.50;41.40
14705;DHT22;7442;50.840;3.396;2023-02-15T12:39:18;24.50;41.50
14705;DHT22;7442;50.840;3.396;2023-02-15T12:42:01;24.50;41.40
14705;DHT22;7442;50.840;3.396;2023-02-15T12:44:35;24.50;41.50
14705;DHT22;7442;50.840;3.396;2023-02-15T12:47:06;24.60;41.50
14705;DHT22;7442;50.840;3.396;2023-02-15T12:49:37;24.70;41.50
14705;DHT22;7442;50.840;3.396;2023-02-15T12:54:53;24.70;41.60
14705;DHT22;7442;50.840;3.396;2023-02-15T12:57:31;24.70;41.60
14705;DHT22;7442;50.840;3.396;2023-02-15T13:00:06;24.80;41.60
14705;DHT22;7442;50.840;3.396;2023-02-15T13:02:46;24.70;41.60
14705;DHT22;7442;50.840;3.396;2023-02-15T13:05:39;24.70;41.70
14705;DHT22;7442;50.840;3.396;2023-02-15T13:08:13;24.80;41.60
14705;DHT22;7442;50.840;3.396;2023-02-15T13:11:03;24.80;41.50
14705;DHT22;7442;50.840;3.396;2023-02-15T13:16:12;24.90;42.10
14705;DHT22;7442;50.840;3.396;2023-02-15T13:18:45;24.90;41.40
14705;DHT22;7442;50.840;3.396;2023-02-15T13:21:25;24.90;41.40
14705;DHT22;7442;50.840;3.396;2023-02-15T13:24:01;24.80;38.90
14705;DHT22;7442;50.840;3.396;2023-02-15T13:26:32;24.60;39.20
14705;DHT22;7442;50.840;3.396;2023-02-15T13:29:06;24.40;39.40
14705;DHT22;7442;50.840;3.396;2023-02-15T13:31:38;24.30;39.50
14705;DHT22;7442;50.840;3.396;2023-02-15T13:34:31;24.20;39.80
14705;DHT22;7442;50.840;3.396;2023-02-15T13:37:17;24.20;40.00
14705;DHT22;7442;50.840;3.396;2023-02-15T13:42:49;24.40;40.60
14705;DHT22;7442;50.840;3.396;2023-02-15T13:45:33;24.50;40.80
14705;DHT22;7442;50.840;3.396;2023-02-15T13:48:30;24.50;40.80
14705;DHT22;7442;50.840;3.396;2023-02-15T13:56:43;24.70;40.60
14705;DHT22;7442;50.840;3.396;2023-02-15T13:59:44;24.70;40.70
14705;DHT22;7442;50.840;3.396;2023-02-15T14:05:15;24.80;40.70
14705;DHT22;7442;50.840;3.396;2023-02-15T14:08:17;24.80;40.70
14705;DHT22;7442;50.840;3.396;2023-02-15T14:11:01;24.80;40.70
14705;DHT22;7442;50.840;3.396;2023-02-15T14:13:47;24.90;40.60
14705;DHT22;7442;50.840;3.396;2023-02-15T14:19:27;24.90;40.60
14705;DHT22;7442;50.840;3.396;2023-02-15T14:22:13;24.90;40.70
14705;DHT22;7442;50.840;3.396;2023-02-15T14:24:45;25.00;40.50
14705;DHT22;7442;50.840;3.396;2023-02-15T14:27:48;24.90;40.50
14705;DHT22;7442;50.840;3.396;2023-02-15T14:35:47;24.90;39.60
14705;DHT22;7442;50.840;3.396;2023-02-15T14:41:06;24.90;40.00
14705;DHT22;7442;50.840;3.396;2023-02-15T14:49:12;24.80;40.20
14705;DHT22;7442;50.840;3.396;2023-02-15T14:59:53;24.90;40.30
14705;DHT22;7442;50.840;3.396;2023-02-15T15:02:29;24.90;40.30
14705;DHT22;7442;50.840;3.396;2023-02-15T15:05:08;24.90;40.30
14705;DHT22;7442;50.840;3.396;2023-02-15T15:07:53;24.90;40.30
14705;DHT22;7442;50.840;3.396;2023-02-15T15:12:57;24.80;40.30
14705;DHT22;7442;50.840;3.396;2023-02-15T15:18:07;24.80;40.30
14705;DHT22;7442;50.840;3.396;2023-02-15T15:26:20;24.80;40.30
14705;DHT22;7442;50.840;3.396;2023-02-15T15:42:37;24.90;40.40
14705;DHT22;7442;50.840;3.396;2023-02-15T15:50:41;24.70;40.50
14705;DHT22;7442;50.840;3.396;2023-02-15T15:53:23;24.70;40.60
14705;DHT22;7442;50.840;3.396;2023-02-15T15:55:57;24.70;40.60
14705;DHT22;7442;50.840;3.396;2023-02-15T15:58:27;24.70;40.70
14705;DHT22;7442;50.840;3.396;2023-02-15T16:01:04;24.80;40.60
14705;DHT22;7442;50.840;3.396;2023-02-15T16:03:35;24.70;40.60
14705;DHT22;7442;50.840;3.396;2023-02-15T16:06:05;24.70;40.60
14705;DHT22;7442;50.840;3.396;2023-02-15T16:08:37;24.70;40.70
14705;DHT22;7442;50.840;3.396;2023-02-15T16:11:14;24.80;40.90
14705;DHT22;7442;50.840;3.396;2023-02-15T16:13:44;24.70;41.00
14705;DHT22;7442;50.840;3.396;2023-02-15T16:16:25;24.80;40.90
14705;DHT22;7442;50.840;3.396;2023-02-15T16:18:52;24.80;40.80
14705;DHT22;7442;50.840;3.396;2023-02-15T16:21:29;24.80;41.00
14705;DHT22;7442;50.840;3.396;2023-02-15T16:24:26;24.70;41.20
14705;DHT22;7442;50.840;3.396;2023-02-15T16:27:01;24.60;41.30
14705;DHT22;7442;50.840;3.396;2023-02-15T16:29:32;24.60;41.30
14705;DHT22;7442;50.840;3.396;2023-02-15T16:32:17;24.60;41.30
14705;DHT22;7442;50.840;3.396;2023-02-15T16:35:00;24.50;41.40
14705;DHT22;7442;50.840;3.396;2023-02-15T16:37:35;24.50;41.50
14705;DHT22;7442;50.840;3.396;2023-02-15T16:40:11;24.40;41.50
14705;DHT22;7442;50.840;3.396;2023-02-15T16:42:38;24.40;41.50
14705;DHT22;7442;50.840;3.396;2023-02-15T16:45:14;24.40;41.40
14705;DHT22;7442;50.840;3.396;2023-02-15T16:47:43;24.40;41.40
14705;DHT22;7442;50.840;3.396;2023-02-15T16:52:51;24.30;41.40
14705;DHT22;7442;50.840;3.396;2023-02-15T16:55:31;24.30;41.40
14705;DHT22;7442;50.840;3.396;2023-02-15T16:58:04;24.20;41.30
14705;DHT22;7442;50.840;3.396;2023-02-15T17:00:38;24.30;41.40
14705;DHT22;7442;50.840;3.396;2023-02-15T17:05:53;24.20;41.10
14705;DHT22;7442;50.840;3.396;2023-02-15T17:08:34;24.20;41.20
14705;DHT22;7442;50.840;3.396;2023-02-15T17:11:14;24.10;41.20
14705;DHT22;7442;50.840;3.396;2023-02-15T17:19:30;24.10;41.10
14705;DHT22;7442;50.840;3.396;2023-02-15T17:21:59;24.20;41.10
14705;DHT22;7442;50.840;3.396;2023-02-15T17:24:38;24.20;41.10
14705;DHT22;7442;50.840;3.396;2023-02-15T17:27:23;24.20;41.00
14705;DHT22;7442;50.840;3.396;2023-02-15T17:30:00;24.20;41.10
14705;DHT22;7442;50.840;3.396;2023-02-15T17:32:32;24.10;41.10
14705;DHT22;7442;50.840;3.396;2023-02-15T17:35:25;24.00;41.10
14705;DHT22;7442;50.840;3.396;2023-02-15T17:40:34;24.00;41.20
14705;DHT22;7442;50.840;3.396;2023-02-15T17:43:05;23.90;41.30
14705;DHT22;7442;50.840;3.396;2023-02-15T17:45:44;23.90;42.00
14705;DHT22;7442;50.840;3.396;2023-02-15T17:48:32;23.90;41.50
14705;DHT22;7442;50.840;3.396;2023-02-15T17:51:04;23.90;41.50
14705;DHT22;7442;50.840;3.396;2023-02-15T17:53:36;23.90;41.60
14705;DHT22;7442;50.840;3.396;2023-02-15T17:56:06;23.90;41.60
14705;DHT22;7442;50.840;3.396;2023-02-15T17:58:38;23.90;41.70
14705;DHT22;7442;50.840;3.396;2023-02-15T18:01:15;23.90;41.80
14705;DHT22;7442;50.840;3.396;2023-02-15T18:04:03;23.80;41.80
14705;DHT22;7442;50.840;3.396;2023-02-15T18:06:52;23.90;42.00
14705;DHT22;7442;50.840;3.396;2023-02-15T18:09:39;23.80;42.00
14705;DHT22;7442;50.840;3.396;2023-02-15T18:12:32;23.80;42.10
14705;DHT22;7442;50.840;3.396;2023-02-15T18:15:00;23.80;42.20
14705;DHT22;7442;50.840;3.396;2023-02-15T18:17:37;23.80;42.20
14705;DHT22;7442;50.840;3.396;2023-02-15T18:20:19;23.70;42.20
14705;DHT22;7442;50.840;3.396;2023-02-15T18:22:40;23.80;42.30
14705;DHT22;7442;50.840;3.396;2023-02-15T18:25:16;23.70;42.40
14705;DHT22;7442;50.840;3.396;2023-02-15T18:27:45;23.70;42.50
14705;DHT22;7442;50.840;3.396;2023-02-15T18:30:18;23.70;42.50
14705;DHT22;7442;50.840;3.396;2023-02-15T18:32:51;23.70;42.50
14705;DHT22;7442;50.840;3.396;2023-02-15T18:35:25;23.70;42.60
14705;DHT22;7442;50.840;3.396;2023-02-15T18:37:55;23.70;42.60
14705;DHT22;7442;50.840;3.396;2023-02-15T18:40:28;23.70;42.60
14705;DHT22;7442;50.840;3.396;2023-02-15T18:42:58;23.60;42.80
14705;DHT22;7442;50.840;3.396;2023-02-15T18:45:28;23.60;42.80
14705;DHT22;7442;50.840;3.396;2023-02-15T18:48:03;23.60;42.90
14705;DHT22;7442;50.840;3.396;2023-02-15T18:50:36;23.60;43.00
14705;DHT22;7442;50.840;3.396;2023-02-15T18:53:14;23.60;43.00
14705;DHT22;7442;50.840;3.396;2023-02-15T18:55:40;23.60;43.00
14705;DHT22;7442;50.840;3.396;2023-02-15T18:58:16;23.60;43.00
14705;DHT22;7442;50.840;3.396;2023-02-15T19:00:47;23.60;43.00
14705;DHT22;7442;50.840;3.396;2023-02-15T19:03:18;23.70;43.00
14705;DHT22;7442;50.840;3.396;2023-02-15T19:05:48;23.60;43.70
14705;DHT22;7442;50.840;3.396;2023-02-15T19:08:21;23.60;43.10
14705;DHT22;7442;50.840;3.396;2023-02-15T19:10:52;23.50;43.20
14705;DHT22;7442;50.840;3.396;2023-02-15T19:13:22;23.60;43.30
14705;DHT22;7442;50.840;3.396;2023-02-15T19:15:52;23.50;43.30
14705;DHT22;7442;50.840;3.396;2023-02-15T19:18:22;23.50;43.40
14705;DHT22;7442;50.840;3.396;2023-02-15T19:20:54;23.50;43.40
14705;DHT22;7442;50.840;3.396;2023-02-15T19:23:24;23.50;43.40